createdAt,value
2018-04-27T00:00:19.591Z,10.40
2018-04-27T00:02:47.071Z,10.40
2018-04-27T00:05:15.326Z,10.40
2018-04-27T00:07:42.808Z,10.30
2018-04-27T00:10:11.036Z,10.30
2018-04-27T00:12:38.507Z,10.30
2018-04-27T00:15:05.997Z,10.30
2018-04-27T00:17:34.228Z,10.30
2018-04-27T00:20:01.710Z,10.30
2018-04-27T00:22:29.175Z,10.30
2018-04-27T00:24:57.419Z,10.30
2018-04-27T00:27:24.888Z,10.30
2018-04-27T00:29:52.378Z,10.30
2018-04-27T00:32:21.409Z,10.30
2018-04-27T00:34:48.899Z,10.30
2018-04-27T00:37:16.364Z,10.30
2018-04-27T00:39:43.848Z,10.30
2018-04-27T00:42:12.092Z,10.20
2018-04-27T00:44:39.556Z,10.20
2018-04-27T00:47:07.041Z,10.20
2018-04-27T00:49:35.272Z,10.10
2018-04-27T00:52:02.764Z,10.10
2018-04-27T00:54:30.230Z,10.10
2018-04-27T00:56:58.473Z,10.00
2018-04-27T00:59:25.964Z,10.00
2018-04-27T01:01:54.208Z,9.90
2018-04-27T01:04:21.672Z,9.90
2018-04-27T01:06:49.132Z,9.90
2018-04-27T01:09:16.603Z,9.90
2018-04-27T01:11:44.063Z,9.90
2018-04-27T01:14:11.552Z,9.90
2018-04-27T01:16:39.020Z,9.90
2018-04-27T01:19:06.491Z,9.80
2018-04-27T01:21:33.948Z,9.80
2018-04-27T01:24:01.426Z,9.80
2018-04-27T01:26:28.947Z,9.80
2018-04-27T01:28:56.467Z,9.90
2018-04-27T01:31:23.928Z,9.90
2018-04-27T01:33:52.164Z,9.80
2018-04-27T01:36:19.650Z,9.80
2018-04-27T01:38:47.118Z,9.80
2018-04-27T01:41:14.587Z,9.80
2018-04-27T01:43:42.820Z,9.80
2018-04-27T01:46:10.292Z,9.70
2018-04-27T01:48:37.797Z,9.70
2018-04-27T01:51:05.349Z,9.70
2018-04-27T01:53:32.748Z,9.70
2018-04-27T01:56:00.232Z,9.70
2018-04-27T01:58:27.705Z,9.70
2018-04-27T02:00:55.931Z,9.70
2018-04-27T02:03:23.422Z,9.70
2018-04-27T02:05:50.892Z,9.70
2018-04-27T02:08:18.360Z,9.70
2018-04-27T02:10:46.586Z,9.70
2018-04-27T02:13:14.060Z,9.70
2018-04-27T02:15:41.520Z,9.70
2018-04-27T02:18:09.008Z,9.70
2018-04-27T02:20:37.235Z,9.60
2018-04-27T02:23:05.720Z,9.60
2018-04-27T02:25:33.215Z,9.60
2018-04-27T02:28:00.712Z,9.60
2018-04-27T02:30:28.180Z,9.60
2018-04-27T02:32:55.637Z,9.60
2018-04-27T02:35:23.158Z,9.60
2018-04-27T02:37:50.590Z,9.60
2018-04-27T02:40:18.065Z,9.50
2018-04-27T02:42:45.525Z,9.60
2018-04-27T02:45:13.780Z,9.60
2018-04-27T02:47:41.236Z,9.60
2018-04-27T02:50:08.720Z,9.50
2018-04-27T02:52:36.949Z,9.30
2018-04-27T02:55:04.412Z,9.20
2018-04-27T02:57:31.892Z,9.30
2018-04-27T02:59:59.353Z,9.30
2018-04-27T03:02:26.839Z,9.30
2018-04-27T03:04:55.065Z,9.20
2018-04-27T03:07:22.544Z,9.20
2018-04-27T03:09:50.006Z,9.20
2018-04-27T03:12:17.484Z,9.10
2018-04-27T03:14:45.724Z,9.10
2018-04-27T03:17:13.188Z,9.10
2018-04-27T03:19:40.659Z,9.10
2018-04-27T03:22:08.124Z,9.10
2018-04-27T03:24:36.404Z,9.00
2018-04-27T03:27:04.640Z,9.00
2018-04-27T03:29:32.120Z,9.00
2018-04-27T03:31:59.582Z,9.00
2018-04-27T03:34:27.100Z,8.90
2018-04-27T03:36:55.296Z,8.90
2018-04-27T03:39:22.793Z,8.90
2018-04-27T03:41:51.024Z,8.80
2018-04-27T03:44:18.483Z,8.80
2018-04-27T03:46:45.957Z,8.80
2018-04-27T03:49:13.420Z,8.80
2018-04-27T03:51:40.900Z,8.70
2018-04-27T03:54:09.148Z,8.70
2018-04-27T03:56:36.628Z,8.70
2018-04-27T03:59:04.095Z,8.70
2018-04-27T04:01:44.268Z,8.60
2018-04-27T04:04:23.829Z,8.60
2018-04-27T04:06:51.407Z,8.60
2018-04-27T04:09:18.864Z,8.70
2018-04-27T04:11:46.380Z,8.60
2018-04-27T04:14:14.612Z,8.70
2018-04-27T04:16:42.103Z,8.70
2018-04-27T04:19:09.622Z,8.70
2018-04-27T04:21:37.089Z,8.60
2018-04-27T04:24:05.306Z,8.60
2018-04-27T04:26:32.834Z,8.50
2018-04-27T04:29:00.319Z,8.50
2018-04-27T04:31:28.589Z,8.40
2018-04-27T04:33:56.852Z,8.40
2018-04-27T04:36:24.312Z,8.40
2018-04-27T04:38:51.852Z,8.40
2018-04-27T04:41:19.370Z,8.40
2018-04-27T04:43:46.849Z,8.40
2018-04-27T04:46:14.327Z,8.50
2018-04-27T04:48:41.812Z,8.50
2018-04-27T04:51:10.055Z,8.40
2018-04-27T04:53:37.536Z,8.40
2018-04-27T04:56:05.043Z,8.40
2018-04-27T04:58:32.501Z,8.40
2018-04-27T05:00:59.988Z,8.40
2018-04-27T05:03:27.454Z,8.30
2018-04-27T05:05:54.920Z,8.30
2018-04-27T05:08:23.159Z,8.40
2018-04-27T05:10:50.637Z,8.40
2018-04-27T05:13:18.118Z,8.50
2018-04-27T05:15:45.589Z,8.50
2018-04-27T05:21:18.876Z,8.60
2018-04-27T05:23:46.372Z,8.50
2018-04-27T05:26:14.594Z,8.60
2018-04-27T05:28:42.048Z,8.60
2018-04-27T05:31:21.180Z,8.60
2018-04-27T05:33:48.673Z,8.70
2018-04-27T05:36:16.931Z,8.70
2018-04-27T05:38:44.391Z,8.70
2018-04-27T05:41:14.310Z,8.70
2018-04-27T05:43:41.759Z,8.80
2018-04-27T05:46:10.044Z,8.80
2018-04-27T05:48:37.531Z,8.80
2018-04-27T05:51:05.758Z,8.90
2018-04-27T05:53:33.240Z,8.90
2018-04-27T05:56:00.716Z,8.90
2018-04-27T05:58:28.963Z,9.10
2018-04-27T06:00:56.424Z,9.10
2018-04-27T06:03:23.895Z,9.20
2018-04-27T06:05:51.352Z,9.20
2018-04-27T06:08:18.857Z,9.20
2018-04-27T06:10:46.310Z,9.30
2018-04-27T06:13:13.770Z,9.30
2018-04-27T06:15:41.245Z,9.40
2018-04-27T06:18:08.712Z,9.40
2018-04-27T06:20:36.183Z,9.50
2018-04-27T06:23:03.648Z,9.50
2018-04-27T06:25:31.121Z,9.50
2018-04-27T06:27:59.355Z,9.60
2018-04-27T06:30:26.833Z,9.60
2018-04-27T06:32:54.304Z,9.70
2018-04-27T06:35:21.770Z,9.90
2018-04-27T06:37:49.243Z,9.90
2018-04-27T06:40:17.505Z,10.10
2018-04-27T06:42:44.990Z,10.10
2018-04-27T06:45:12.457Z,10.20
2018-04-27T06:47:39.937Z,10.30
2018-04-27T06:50:07.407Z,10.40
2018-04-27T06:52:34.892Z,10.40
2018-04-27T06:55:02.403Z,10.50
2018-04-27T06:57:29.877Z,10.60
2018-04-27T06:59:57.353Z,10.60
2018-04-27T07:02:24.816Z,10.80
2018-04-27T07:04:52.302Z,10.80
2018-04-27T07:07:20.536Z,11.00
2018-04-27T07:09:48.023Z,11.00
2018-04-27T07:12:16.265Z,11.20
2018-04-27T07:14:43.740Z,11.10
2018-04-27T07:17:11.241Z,11.20
2018-04-27T07:19:39.461Z,11.30
2018-04-27T07:22:06.936Z,11.30
2018-04-27T07:24:34.400Z,11.50
2018-04-27T07:27:02.649Z,11.70
2018-04-27T07:29:30.112Z,11.70
2018-04-27T07:31:57.585Z,11.80
2018-04-27T07:34:25.064Z,11.80
2018-04-27T07:36:53.297Z,12.00
2018-04-27T07:39:20.773Z,12.00
2018-04-27T07:41:48.228Z,12.00
2018-04-27T07:44:15.711Z,12.10
2018-04-27T07:46:43.940Z,12.20
2018-04-27T07:49:11.412Z,12.20
2018-04-27T07:51:38.911Z,12.30
2018-04-27T07:54:07.131Z,12.30
2018-04-27T07:56:34.607Z,12.30
2018-04-27T07:59:02.074Z,12.50
2018-04-27T08:01:29.575Z,12.70
2018-04-27T08:03:57.077Z,12.90
2018-04-27T08:06:24.540Z,13.00
2018-04-27T08:08:52.030Z,13.10
2018-04-27T08:11:20.271Z,13.30
2018-04-27T08:13:47.760Z,13.30
2018-04-27T08:16:15.992Z,13.30
2018-04-27T08:18:43.516Z,13.30
2018-04-27T08:21:10.968Z,13.30
2018-04-27T08:23:39.223Z,13.50
2018-04-27T08:26:06.713Z,13.50
2018-04-27T08:28:34.186Z,13.60
2018-04-27T08:31:01.659Z,13.70
2018-04-27T08:33:29.131Z,13.70
2018-04-27T08:35:56.618Z,13.90
2018-04-27T08:38:24.856Z,14.00
2018-04-27T08:40:52.312Z,14.00
2018-04-27T08:43:19.935Z,14.10
2018-04-27T08:45:47.396Z,14.30
2018-04-27T08:48:14.891Z,14.50
2018-04-27T08:50:42.356Z,14.60
2018-04-27T08:53:09.852Z,14.70
2018-04-27T08:55:38.091Z,14.90
2018-04-27T08:58:05.555Z,14.90
2018-04-27T09:00:33.024Z,15.20
2018-04-27T09:03:00.508Z,15.30
2018-04-27T09:05:28.744Z,15.30
2018-04-27T09:07:56.227Z,15.30
2018-04-27T09:10:23.712Z,15.50
2018-04-27T09:12:51.175Z,15.70
2018-04-27T09:15:18.642Z,15.70
2018-04-27T09:17:46.140Z,15.90
2018-04-27T09:20:13.767Z,15.90
2018-04-27T09:22:41.248Z,16.10
2018-04-27T09:25:08.728Z,16.00
2018-04-27T09:27:36.980Z,16.20
2018-04-27T09:30:04.515Z,16.10
2018-04-27T09:32:31.984Z,16.30
2018-04-27T09:34:59.462Z,16.50
2018-04-27T09:37:26.955Z,16.50
2018-04-27T09:39:55.213Z,16.80
2018-04-27T09:42:22.684Z,16.70
2018-04-27T09:44:50.948Z,16.80
2018-04-27T09:47:18.595Z,16.80
2018-04-27T09:49:46.070Z,16.90
2018-04-27T09:52:13.539Z,17.20
2018-04-27T09:54:41.037Z,17.10
2018-04-27T09:57:08.572Z,17.10
2018-04-27T09:59:36.814Z,17.10
2018-04-27T10:02:04.296Z,17.10
2018-04-27T10:04:32.527Z,17.20
2018-04-27T10:06:59.992Z,17.20
2018-04-27T10:09:27.492Z,17.30
2018-04-27T10:11:55.720Z,17.60
2018-04-27T10:14:23.203Z,17.50
2018-04-27T10:16:50.715Z,17.60
2018-04-27T10:19:18.216Z,17.80
2018-04-27T10:21:45.679Z,17.80
2018-04-27T10:24:13.167Z,17.80
2018-04-27T10:26:41.416Z,17.80
2018-04-27T10:29:08.884Z,17.80
2018-04-27T10:31:37.143Z,17.60
2018-04-27T10:34:04.616Z,17.60
2018-04-27T10:36:32.131Z,17.60
2018-04-27T10:38:59.573Z,17.80
2018-04-27T10:41:27.050Z,17.90
2018-04-27T10:43:54.526Z,17.90
2018-04-27T10:46:22.024Z,17.90
2018-04-27T10:48:50.279Z,18.20
2018-04-27T10:51:17.736Z,18.20
2018-04-27T10:53:45.224Z,18.20
2018-04-27T10:56:12.762Z,18.30
2018-04-27T10:58:40.201Z,18.20
2018-04-27T11:01:09.191Z,18.20
2018-04-27T11:03:36.682Z,18.20
2018-04-27T11:06:04.939Z,18.60
2018-04-27T11:08:32.400Z,18.50
2018-04-27T11:10:59.913Z,18.60
2018-04-27T11:13:27.368Z,18.70
2018-04-27T11:15:54.862Z,18.70
2018-04-27T11:18:22.380Z,18.60
2018-04-27T11:20:49.865Z,18.70
2018-04-27T11:23:17.363Z,18.80
2018-04-27T11:25:45.595Z,19.10
2018-04-27T11:28:13.083Z,19.10
2018-04-27T11:30:40.557Z,19.00
2018-04-27T11:33:08.788Z,19.00
2018-04-27T11:35:36.294Z,19.00
2018-04-27T11:38:04.525Z,19.20
2018-04-27T11:40:32.007Z,19.20
2018-04-27T11:42:59.485Z,19.30
2018-04-27T11:45:27.711Z,19.40
2018-04-27T11:47:55.197Z,19.30
2018-04-27T11:50:22.665Z,19.40
2018-04-27T11:52:50.933Z,19.70
2018-04-27T11:55:18.431Z,19.70
2018-04-27T11:57:45.902Z,19.90
2018-04-27T12:00:13.383Z,19.90
2018-04-27T12:02:40.847Z,19.90
2018-04-27T12:05:08.328Z,19.90
2018-04-27T12:07:35.787Z,19.90
2018-04-27T12:10:03.272Z,20.20
2018-04-27T12:12:31.511Z,20.00
2018-04-27T12:14:58.979Z,20.00
2018-04-27T12:17:27.396Z,20.10
2018-04-27T12:19:54.871Z,20.10
2018-04-27T12:22:22.367Z,20.30
2018-04-27T12:24:49.835Z,20.40
2018-04-27T12:27:18.108Z,20.60
2018-04-27T12:29:45.585Z,20.60
2018-04-27T12:32:13.823Z,20.40
2018-04-27T13:45:01.528Z,25.40
2018-04-27T13:47:29.031Z,25.60
2018-04-27T13:49:56.544Z,25.80
2018-04-27T13:52:24.041Z,26.10
2018-04-27T13:54:51.504Z,26.40
2018-04-27T13:57:19.803Z,26.50
2018-04-27T13:59:48.039Z,25.90
2018-04-27T14:02:15.564Z,25.90
2018-04-27T14:04:43.028Z,26.00
2018-04-27T14:07:11.385Z,26.50
2018-04-27T14:09:39.087Z,26.70
2018-04-27T14:12:06.632Z,27.10
2018-04-27T14:14:34.105Z,26.80
2018-04-27T14:17:01.585Z,26.30
2018-04-27T14:19:29.071Z,25.40
2018-04-27T14:21:57.436Z,23.50
2018-04-27T14:24:25.671Z,22.90
2018-04-27T14:26:53.255Z,22.80
2018-04-27T14:29:20.696Z,22.40
2018-04-27T14:31:48.172Z,21.90
2018-04-27T14:34:15.639Z,21.60
2018-04-27T14:36:43.140Z,21.30
2018-04-27T14:39:10.640Z,21.20
2018-04-27T14:41:38.108Z,21.10
2018-04-27T14:44:05.583Z,21.10
2018-04-27T14:46:33.853Z,20.60
2018-04-27T14:49:01.326Z,20.60
2018-04-27T14:51:28.818Z,20.60
2018-04-27T14:53:56.304Z,20.70
2018-04-27T14:56:23.786Z,20.70
2018-04-27T14:58:52.038Z,20.60
2018-04-27T15:01:19.532Z,20.60
2018-04-27T15:03:47.768Z,20.50
2018-04-27T15:06:15.258Z,20.50
2018-04-27T15:08:43.484Z,20.70
2018-04-27T15:11:10.980Z,20.70
2018-04-27T15:13:38.438Z,20.60
2018-04-27T15:16:05.909Z,20.50
2018-04-27T15:18:34.164Z,20.50
2018-04-27T15:21:01.675Z,20.40
2018-04-27T15:23:29.168Z,20.50
2018-04-27T15:25:56.628Z,20.50
2018-04-27T15:28:24.092Z,20.40
2018-04-27T15:30:51.567Z,20.40
2018-04-27T15:33:19.825Z,20.20
2018-04-27T15:35:47.309Z,20.20
2018-04-27T15:38:15.535Z,20.20
2018-04-27T15:40:43.043Z,20.20
2018-04-27T15:43:11.284Z,20.20
2018-04-27T15:45:38.744Z,20.10
2018-04-27T15:48:06.226Z,20.10
2018-04-27T15:50:33.683Z,20.10
2018-04-27T15:53:01.166Z,20.20
2018-04-27T15:55:29.391Z,20.20
2018-04-27T15:57:56.881Z,20.20
2018-04-27T16:00:25.112Z,20.10
2018-04-27T16:02:52.580Z,20.10
2018-04-27T16:05:20.053Z,20.10
2018-04-27T16:07:47.523Z,20.10
2018-04-27T16:10:15.007Z,20.10
2018-04-27T16:12:43.313Z,20.10
2018-04-27T16:15:11.819Z,20.00
2018-04-27T16:17:39.286Z,20.00
2018-04-27T16:20:06.774Z,20.10
2018-04-27T16:22:35.080Z,20.10
2018-04-27T16:25:02.541Z,20.10
2018-04-27T16:27:31.071Z,20.10
2018-04-27T16:29:58.587Z,20.10
2018-04-27T16:32:26.050Z,20.00
2018-04-27T16:34:53.516Z,20.00
2018-04-27T16:37:21.119Z,20.00
2018-04-27T16:39:49.395Z,20.10
2018-04-27T16:42:17.663Z,20.10
2018-04-27T16:44:45.168Z,20.10
2018-04-27T16:47:12.648Z,20.10
2018-04-27T16:49:40.143Z,20.10
2018-04-27T16:52:07.634Z,20.10
2018-04-27T16:54:35.219Z,20.00
2018-04-27T16:57:02.641Z,20.00
2018-04-27T16:59:30.895Z,19.90
2018-04-27T17:02:00.066Z,19.90
2018-04-27T17:04:27.553Z,19.80
2018-04-27T17:06:55.796Z,19.80
2018-04-27T17:09:23.351Z,19.80
2018-04-27T17:11:50.823Z,19.80
2018-04-27T17:14:18.345Z,19.70
2018-04-27T17:16:45.852Z,19.70
2018-04-27T17:19:14.397Z,19.70
2018-04-27T17:21:42.904Z,19.60
2018-04-27T17:24:10.516Z,19.60
2018-04-27T17:26:38.839Z,19.70
2018-04-27T17:29:07.025Z,19.70
2018-04-27T17:31:34.533Z,19.70
2018-04-27T17:34:02.060Z,19.80
2018-04-27T17:36:29.587Z,19.80
2018-04-27T17:38:57.123Z,19.80
2018-04-27T17:41:24.597Z,19.90
2018-04-27T17:43:52.071Z,19.90
2018-04-27T17:46:19.537Z,20.00
2018-04-27T17:48:47.116Z,20.00
2018-04-27T17:51:14.559Z,20.00
2018-04-27T17:53:42.087Z,20.00
2018-04-27T17:56:09.570Z,20.00
2018-04-27T17:58:37.032Z,20.00
2018-04-27T18:01:04.507Z,20.00
2018-04-27T18:03:32.002Z,19.90
2018-04-27T18:05:59.493Z,19.90
2018-04-27T18:08:26.948Z,19.80
2018-04-27T18:10:54.465Z,19.80
2018-04-27T18:13:22.692Z,19.70
2018-04-27T18:15:50.214Z,19.60
2018-04-27T18:18:17.762Z,19.60
2018-04-27T18:20:45.260Z,19.50
2018-04-27T18:23:12.790Z,19.40
2018-04-27T18:25:40.444Z,19.30
2018-04-27T18:28:08.675Z,19.20
2018-04-27T18:30:36.139Z,19.20
2018-04-27T18:33:03.611Z,19.10
2018-04-27T18:35:31.897Z,19.00
2018-04-27T18:37:59.348Z,19.00
2018-04-27T18:40:35.673Z,18.90
2018-04-27T18:43:03.148Z,18.90
2018-04-27T18:45:30.680Z,18.80
2018-04-27T18:47:58.144Z,18.80
2018-04-27T18:50:28.564Z,18.80
2018-04-27T18:52:56.060Z,18.70
2018-04-27T18:55:23.548Z,18.70
2018-04-27T18:57:51.807Z,18.70
2018-04-27T19:00:19.263Z,18.70
2018-04-27T19:02:47.575Z,18.60
2018-04-27T19:05:15.077Z,18.60
2018-04-27T19:07:42.552Z,18.60
2018-04-27T19:10:10.028Z,18.50
2018-04-27T19:12:38.316Z,18.50
2018-04-27T19:15:05.812Z,18.50
2018-04-27T19:17:33.268Z,18.50
2018-04-27T19:20:01.481Z,18.50
2018-04-27T19:22:29.046Z,18.50
2018-04-27T19:24:57.276Z,18.50
2018-04-27T19:27:24.795Z,18.50
2018-04-27T19:29:52.282Z,18.60
2018-04-27T19:32:19.779Z,18.70
2018-04-27T19:34:47.350Z,18.70
2018-04-27T19:37:14.814Z,18.70
2018-04-27T19:39:43.183Z,18.60
2018-04-27T19:42:10.645Z,18.60
2018-04-27T19:44:38.131Z,18.60
2018-04-27T19:47:06.492Z,18.50
2018-04-27T19:49:34.749Z,18.50
2018-04-27T19:52:02.221Z,18.50
2018-04-27T19:54:30.525Z,18.50
2018-04-27T19:56:58.815Z,18.50
2018-04-27T19:59:26.335Z,18.50
2018-04-27T20:01:53.824Z,18.50
2018-04-27T20:04:21.290Z,18.50
2018-04-27T20:06:48.848Z,18.50
2018-04-27T20:09:16.320Z,18.40
2018-04-27T20:11:43.902Z,18.40
2018-04-27T20:14:17.951Z,18.30
2018-04-27T20:16:46.355Z,18.30
2018-04-27T20:19:13.777Z,18.20
2018-04-27T20:21:41.249Z,18.20
2018-04-27T20:24:09.508Z,18.10
2018-04-27T20:26:36.971Z,18.10
2018-04-27T20:29:04.455Z,18.10
2018-04-27T20:31:31.953Z,18.00
2018-04-27T20:33:59.463Z,18.00
2018-04-27T20:36:26.950Z,17.90
2018-04-27T20:38:54.459Z,17.90
2018-04-27T20:41:23.652Z,17.80
2018-04-27T20:43:51.401Z,17.80
2018-04-27T20:46:18.935Z,17.80
2018-04-27T20:48:46.487Z,17.70
2018-04-27T20:51:14.222Z,17.70
2018-04-27T20:53:57.186Z,17.60
2018-04-27T20:56:26.303Z,17.60
2018-04-27T20:58:53.808Z,17.60
2018-04-27T21:01:21.516Z,17.60
2018-04-27T21:03:49.068Z,17.60
2018-04-27T21:06:16.633Z,17.60
2018-04-27T21:08:45.366Z,17.60
2018-04-27T21:11:12.923Z,17.60
2018-04-27T21:13:41.254Z,17.50
2018-04-27T21:16:08.776Z,17.50
2018-04-27T21:18:37.020Z,17.50
2018-04-27T21:21:04.571Z,17.50
2018-04-27T21:23:32.153Z,17.50
2018-04-27T21:25:59.857Z,17.50
2018-04-27T21:28:30.437Z,17.50
2018-04-27T21:30:57.916Z,17.60
2018-04-27T21:33:39.702Z,17.50
2018-04-27T21:36:10.705Z,17.50
2018-04-27T21:38:44.964Z,17.50
2018-04-27T21:44:27.788Z,17.50
2018-04-27T21:46:59.771Z,17.50
2018-04-27T21:49:27.271Z,17.50
2018-04-27T21:52:08.630Z,17.50
2018-04-27T21:54:36.132Z,17.40
2018-04-27T21:57:05.072Z,17.40
2018-04-27T22:02:33.008Z,17.40
2018-04-27T22:05:12.051Z,17.30
2018-04-27T22:07:43.508Z,17.30
2018-04-27T22:10:10.984Z,17.20
2018-04-27T22:12:40.001Z,17.20
2018-04-27T22:15:07.504Z,17.10
2018-04-27T22:17:35.811Z,17.10
2018-04-27T22:20:16.695Z,17.00
2018-04-27T22:22:44.932Z,17.00
2018-04-27T22:25:14.237Z,16.90
2018-04-27T22:27:41.700Z,16.90
2018-04-27T22:30:13.955Z,16.90
2018-04-27T22:32:41.422Z,16.80
2018-04-27T22:35:09.817Z,16.80
2018-04-27T22:37:38.038Z,16.80
2018-04-27T22:40:09.012Z,16.70
2018-04-27T22:45:40.992Z,16.60
2018-04-27T22:48:10.064Z,16.60
2018-04-27T22:50:37.536Z,16.60
2018-04-27T22:53:05.010Z,16.50
2018-04-27T22:55:34.312Z,16.50
2018-04-27T22:58:10.292Z,16.50
2018-04-27T23:00:44.428Z,16.40
2018-04-27T23:03:12.660Z,16.30
2018-04-27T23:05:40.141Z,16.30
2018-04-27T23:08:08.393Z,16.30
2018-04-27T23:13:51.049Z,16.20
2018-04-27T23:16:20.271Z,16.20
2018-04-27T23:18:51.339Z,16.20
2018-04-27T23:21:20.739Z,16.10
2018-04-27T23:23:48.252Z,16.20
2018-04-27T23:26:15.722Z,16.10
2018-04-27T23:28:43.977Z,16.10
2018-04-27T23:31:11.445Z,16.10
2018-04-27T23:33:40.157Z,16.10
2018-04-27T23:36:08.400Z,16.10
2018-04-27T23:38:37.400Z,16.00
2018-04-27T23:41:05.684Z,16.00
2018-04-27T23:43:34.981Z,16.00
2018-04-27T23:46:02.475Z,16.00
2018-04-27T23:48:29.949Z,15.90
2018-04-27T23:50:59.270Z,15.90
2018-04-27T23:53:27.683Z,15.90
2018-04-27T23:55:55.120Z,15.90
2018-04-27T23:58:31.678Z,15.90
